sensor_id;sensor_type;location;lat;lon;timestamp;pressure;altitude;pressure_sealevel;temperature;humidity
49835;BME280;35729;52.090;13.162;2023-02-18T00:02:01;101115.84;;;6.07;73.97
49835;BME280;35729;52.090;13.162;2023-02-18T00:04:30;101121.91;;;6.08;74.11
49835;BME280;35729;52.090;13.162;2023-02-18T00:06:59;101119.31;;;6.03;72.73
49835;BME280;35729;52.090;13.162;2023-02-18T00:09:27;101116.69;;;6.05;74.25
49835;BME280;35729;52.090;13.162;2023-02-18T00:11:56;101115.84;;;6.06;75.59
49835;BME280;35729;52.090;13.162;2023-02-18T00:14:24;101121.88;;;6.01;72.85
49835;BME280;35729;52.090;13.162;2023-02-18T00:16:55;101107.13;;;5.99;72.16
49835;BME280;35729;52.090;13.162;2023-02-18T00:19:24;101121.84;;;5.97;73.32
49835;BME280;35729;52.090;13.162;2023-02-18T00:21:52;101127.94;;;5.96;74.32
49835;BME280;35729;52.090;13.162;2023-02-18T00:24:21;101108.84;;;5.95;73.66
49835;BME280;35729;52.090;13.162;2023-02-18T00:26:50;101106.19;;;5.87;73.12
49835;BME280;35729;52.090;13.162;2023-02-18T00:29:19;101107.94;;;5.92;73.49
49835;BME280;35729;52.090;13.162;2023-02-18T00:31:48;101130.50;;;5.91;72.82
49835;BME280;35729;52.090;13.162;2023-02-18T00:34:19;101128.75;;;5.90;72.88
49835;BME280;35729;52.090;13.162;2023-02-18T00:36:47;101114.88;;;5.91;76.55
49835;BME280;35729;52.090;13.162;2023-02-18T00:39:15;101125.28;;;5.91;74.76
49835;BME280;35729;52.090;13.162;2023-02-18T00:41:44;101135.72;;;5.86;72.07
49835;BME280;35729;52.090;13.162;2023-02-18T00:44:12;101123.56;;;5.88;75.49
49835;BME280;35729;52.090;13.162;2023-02-18T00:46:41;101127.91;;;5.88;74.33
49835;BME280;35729;52.090;13.162;2023-02-18T00:49:12;101120.94;;;5.85;77.05
49835;BME280;35729;52.090;13.162;2023-02-18T00:51:43;101115.72;;;5.82;73.03
49835;BME280;35729;52.090;13.162;2023-02-18T00:54:12;101142.63;;;5.81;75.51
49835;BME280;35729;52.090;13.162;2023-02-18T00:56:40;101120.03;;;5.77;73.10
49835;BME280;35729;52.090;13.162;2023-02-18T00:59:08;101139.13;;;5.76;73.75
49835;BME280;35729;52.090;13.162;2023-02-18T01:01:37;101129.56;;;5.74;72.43
49835;BME280;35729;52.090;13.162;2023-02-18T01:04:05;101146.94;;;5.76;75.25
49835;BME280;35729;52.090;13.162;2023-02-18T01:06:34;101135.66;;;5.74;74.06
49835;BME280;35729;52.090;13.162;2023-02-18T01:09:05;101136.50;;;5.73;73.02
49835;BME280;35729;52.090;13.162;2023-02-18T01:11:34;101130.44;;;5.74;76.22
49835;BME280;35729;52.090;13.162;2023-02-18T01:14:02;101135.63;;;5.69;74.25
49835;BME280;35729;52.090;13.162;2023-02-18T01:16:31;101118.25;;;5.68;75.41
49835;BME280;35729;52.090;13.162;2023-02-18T01:18:59;101132.13;;;5.64;73.99
49835;BME280;35729;52.090;13.162;2023-02-18T01:21:27;101125.19;;;5.63;74.29
49835;BME280;35729;52.090;13.162;2023-02-18T01:23:56;101133.84;;;5.62;76.22
49835;BME280;35729;52.090;13.162;2023-02-18T01:26:27;101146.00;;;5.60;74.63
49835;BME280;35729;52.090;13.162;2023-02-18T01:28:56;101137.31;;;5.60;76.37
49835;BME280;35729;52.090;13.162;2023-02-18T01:31:24;101133.84;;;5.56;73.83
49835;BME280;35729;52.090;13.162;2023-02-18T01:33:53;101142.50;;;5.55;74.04
49835;BME280;35729;52.090;13.162;2023-02-18T01:36:21;101128.59;;;5.54;76.53
49835;BME280;35729;52.090;13.162;2023-02-18T01:38:49;101130.34;;;5.54;76.71
49835;BME280;35729;52.090;13.162;2023-02-18T01:41:19;101135.56;;;5.52;74.50
49835;BME280;35729;52.090;13.162;2023-02-18T01:44:15;101139.88;;;5.47;72.75
49835;BME280;35729;52.090;13.162;2023-02-18T01:46:44;101147.63;;;5.46;73.25
49835;BME280;35729;52.090;13.162;2023-02-18T01:49:21;101133.78;;;5.44;73.85
49835;BME280;35729;52.090;13.162;2023-02-18T01:51:53;101134.63;;;5.43;75.98
49835;BME280;35729;52.090;13.162;2023-02-18T01:54:27;101138.94;;;5.37;75.06
49835;BME280;35729;52.090;13.162;2023-02-18T01:57:06;101132.88;;;5.40;76.21
49835;BME280;35729;52.090;13.162;2023-02-18T01:59:41;101142.41;;;5.38;76.34
49835;BME280;35729;52.090;13.162;2023-02-18T02:02:14;101146.75;;;5.36;76.76
49835;BME280;35729;52.090;13.162;2023-02-18T02:04:44;101140.66;;;5.35;72.90
49835;BME280;35729;52.090;13.162;2023-02-18T02:07:14;101138.91;;;5.34;76.54
49835;BME280;35729;52.090;13.162;2023-02-18T02:09:43;101142.34;;;5.32;75.37
49835;BME280;35729;52.090;13.162;2023-02-18T02:12:32;101149.25;;;5.25;73.37
49835;BME280;35729;52.090;13.162;2023-02-18T02:15:20;101145.81;;;5.28;73.66
49835;BME280;35729;52.090;13.162;2023-02-18T02:21:19;101160.53;;;5.26;73.30
49835;BME280;35729;52.090;13.162;2023-02-18T02:27:20;101149.25;;;5.25;74.34
49835;BME280;35729;52.090;13.162;2023-02-18T02:30:31;101163.97;;;5.21;72.72
49835;BME280;35729;52.090;13.162;2023-02-18T02:33:28;101154.44;;;5.22;74.30
49835;BME280;35729;52.090;13.162;2023-02-18T02:36:11;101142.31;;;5.21;74.40
49835;BME280;35729;52.090;13.162;2023-02-18T02:38:54;101141.41;;;5.19;72.88
49835;BME280;35729;52.090;13.162;2023-02-18T02:41:32;101151.81;;;5.17;72.78
49835;BME280;35729;52.090;13.162;2023-02-18T02:44:12;101155.28;;;5.18;72.50
49835;BME280;35729;52.090;13.162;2023-02-18T02:46:47;101137.09;;;5.19;74.92
49835;BME280;35729;52.090;13.162;2023-02-18T02:49:27;101132.75;;;5.18;73.22
49835;BME280;35729;52.090;13.162;2023-02-18T02:52:04;101138.81;;;5.17;73.77
49835;BME280;35729;52.090;13.162;2023-02-18T02:54:33;101121.44;;;5.18;76.11
49835;BME280;35729;52.090;13.162;2023-02-18T02:57:07;101130.16;;;5.17;73.92
49835;BME280;35729;52.090;13.162;2023-02-18T02:59:40;101136.19;;;5.16;75.95
49835;BME280;35729;52.090;13.162;2023-02-18T03:02:20;101130.09;;;5.14;73.63
49835;BME280;35729;52.090;13.162;2023-02-18T03:10:45;101124.91;;;5.11;72.94
49835;BME280;35729;52.090;13.162;2023-02-18T03:13:22;101135.31;;;5.11;72.28
49835;BME280;35729;52.090;13.162;2023-02-18T03:15:55;101137.91;;;5.11;73.52
49835;BME280;35729;52.090;13.162;2023-02-18T03:18:30;101139.59;;;5.10;74.98
49835;BME280;35729;52.090;13.162;2023-02-18T03:21:06;101124.00;;;5.10;74.64
49835;BME280;35729;52.090;13.162;2023-02-18T03:23:43;101130.94;;;5.10;76.30
49835;BME280;35729;52.090;13.162;2023-02-18T03:26:17;101128.31;;;5.06;74.45
49835;BME280;35729;52.090;13.162;2023-02-18T03:28:48;101121.41;;;5.05;75.11
49835;BME280;35729;52.090;13.162;2023-02-18T03:31:20;101124.84;;;5.04;73.83
49835;BME280;35729;52.090;13.162;2023-02-18T03:33:54;101124.00;;;5.05;75.65
49835;BME280;35729;52.090;13.162;2023-02-18T03:36:24;101130.91;;;5.06;78.29
49835;BME280;35729;52.090;13.162;2023-02-18T03:38:59;101132.66;;;5.08;76.19
49835;BME280;35729;52.090;13.162;2023-02-18T03:41:28;101133.56;;;5.08;78.40
49835;BME280;35729;52.090;13.162;2023-02-18T03:43:59;101125.75;;;5.10;76.75
49835;BME280;35729;52.090;13.162;2023-02-18T03:46:28;101127.50;;;5.12;75.34
49835;BME280;35729;52.090;13.162;2023-02-18T03:48:57;101126.66;;;5.15;77.51
49835;BME280;35729;52.090;13.162;2023-02-18T03:51:26;101124.03;;;5.15;75.65
49835;BME280;35729;52.090;13.162;2023-02-18T03:53:57;101134.50;;;5.19;73.40
49835;BME280;35729;52.090;13.162;2023-02-18T03:56:25;101137.09;;;5.22;74.14
49835;BME280;35729;52.090;13.162;2023-02-18T03:58:54;101125.00;;;5.26;77.37
49835;BME280;35729;52.090;13.162;2023-02-18T04:01:22;101121.53;;;5.30;77.72
49835;BME280;35729;52.090;13.162;2023-02-18T04:03:51;101105.06;;;5.33;77.07
49835;BME280;35729;52.090;13.162;2023-02-18T04:06:20;101115.50;;;5.36;76.19
49835;BME280;35729;52.090;13.162;2023-02-18T04:08:48;101116.38;;;5.39;76.79
49835;BME280;35729;52.090;13.162;2023-02-18T04:11:20;101114.66;;;5.42;72.06
49835;BME280;35729;52.090;13.162;2023-02-18T04:13:48;101131.16;;;5.45;76.46
49835;BME280;35729;52.090;13.162;2023-02-18T04:16:17;101139.88;;;5.49;71.72
49835;BME280;35729;52.090;13.162;2023-02-18T04:18:45;101121.66;;;5.52;71.29
49835;BME280;35729;52.090;13.162;2023-02-18T04:21:14;101126.91;;;5.58;71.74
49835;BME280;35729;52.090;13.162;2023-02-18T04:23:42;101126.03;;;5.62;72.40
49835;BME280;35729;52.090;13.162;2023-02-18T04:26:11;101120.00;;;5.66;75.11
49835;BME280;35729;52.090;13.162;2023-02-18T04:28:42;101116.53;;;5.69;75.19
49835;BME280;35729;52.090;13.162;2023-02-18T04:31:11;101113.94;;;5.69;71.87
49835;BME280;35729;52.090;13.162;2023-02-18T04:33:39;101115.69;;;5.70;74.83
49835;BME280;35729;52.090;13.162;2023-02-18T04:36:08;101126.97;;;5.70;72.80
49835;BME280;35729;52.090;13.162;2023-02-18T04:38:37;101123.50;;;5.75;73.99
49835;BME280;35729;52.090;13.162;2023-02-18T04:41:06;101123.50;;;5.76;75.69
49835;BME280;35729;52.090;13.162;2023-02-18T04:43:37;101117.44;;;5.76;72.99
49835;BME280;35729;52.090;13.162;2023-02-18T04:46:08;101114.81;;;5.76;74.12
49835;BME280;35729;52.090;13.162;2023-02-18T04:48:36;101121.78;;;5.80;75.53
49835;BME280;35729;52.090;13.162;2023-02-18T04:51:05;101114.84;;;5.79;71.60
49835;BME280;35729;52.090;13.162;2023-02-18T04:53:33;101136.53;;;5.81;74.03
49835;BME280;35729;52.090;13.162;2023-02-18T04:56:02;101128.75;;;5.84;74.79
49835;BME280;35729;52.090;13.162;2023-02-18T04:58:30;101127.88;;;5.85;74.65
49835;BME280;35729;52.090;13.162;2023-02-18T05:00:59;101121.84;;;5.89;73.61
49835;BME280;35729;52.090;13.162;2023-02-18T05:03:31;101128.75;;;5.90;72.00
49835;BME280;35729;52.090;13.162;2023-02-18T05:06:00;101137.47;;;5.92;73.38
49835;BME280;35729;52.090;13.162;2023-02-18T05:08:28;101125.28;;;5.91;72.81
49835;BME280;35729;52.090;13.162;2023-02-18T05:10:57;101129.66;;;5.92;70.22
49835;BME280;35729;52.090;13.162;2023-02-18T05:13:25;101118.38;;;5.93;73.73
49835;BME280;35729;52.090;13.162;2023-02-18T05:15:54;101120.09;;;5.97;75.33
49835;BME280;35729;52.090;13.162;2023-02-18T05:18:22;101116.69;;;5.98;74.19
49835;BME280;35729;52.090;13.162;2023-02-18T05:20:53;101115.78;;;5.98;72.19
49835;BME280;35729;52.090;13.162;2023-02-18T05:23:22;101104.50;;;5.99;73.19
49835;BME280;35729;52.090;13.162;2023-02-18T05:25:51;101118.41;;;5.98;75.04
49835;BME280;35729;52.090;13.162;2023-02-18T05:28:19;101121.88;;;6.01;75.42
49835;BME280;35729;52.090;13.162;2023-02-18T05:30:48;101109.75;;;6.00;75.42
49835;BME280;35729;52.090;13.162;2023-02-18T05:33:16;101116.69;;;6.00;74.27
49835;BME280;35729;52.090;13.162;2023-02-18T05:35:45;101115.81;;;6.02;75.74
49835;BME280;35729;52.090;13.162;2023-02-18T05:38:16;101121.88;;;6.01;73.29
49835;BME280;35729;52.090;13.162;2023-02-18T05:40:44;101121.91;;;6.03;73.31
49835;BME280;35729;52.090;13.162;2023-02-18T05:43:13;101132.34;;;6.05;73.04
49835;BME280;35729;52.090;13.162;2023-02-18T05:45:42;101115.84;;;6.06;74.48
49835;BME280;35729;52.090;13.162;2023-02-18T05:48:11;101126.25;;;6.07;75.10
49835;BME280;35729;52.090;13.162;2023-02-18T05:50:39;101114.97;;;6.07;73.45
49835;BME280;35729;52.090;13.162;2023-02-18T05:53:08;101120.19;;;6.08;74.52
49835;BME280;35729;52.090;13.162;2023-02-18T05:55:39;101117.59;;;6.10;75.45
49835;BME280;35729;52.090;13.162;2023-02-18T05:58:07;101121.06;;;6.12;75.12
49835;BME280;35729;52.090;13.162;2023-02-18T06:00:36;101111.50;;;6.11;72.96
49835;BME280;35729;52.090;13.162;2023-02-18T06:03:04;101110.66;;;6.13;75.56
49835;BME280;35729;52.090;13.162;2023-02-18T06:05:32;101105.44;;;6.13;75.96
49835;BME280;35729;52.090;13.162;2023-02-18T06:08:01;101125.38;;;6.13;72.11
49835;BME280;35729;52.090;13.162;2023-02-18T06:10:29;101107.19;;;6.16;75.74
49835;BME280;35729;52.090;13.162;2023-02-18T06:13:00;101113.25;;;6.15;73.57
49835;BME280;35729;52.090;13.162;2023-02-18T06:15:29;101110.66;;;6.18;75.43
49835;BME280;35729;52.090;13.162;2023-02-18T06:17:57;101110.66;;;6.18;73.51
49835;BME280;35729;52.090;13.162;2023-02-18T06:20:26;101105.47;;;6.18;75.70
49835;BME280;35729;52.090;13.162;2023-02-18T06:22:54;101099.34;;;6.19;76.30
49835;BME280;35729;52.090;13.162;2023-02-18T06:25:23;101106.31;;;6.20;75.69
49835;BME280;35729;52.090;13.162;2023-02-18T06:27:52;101099.34;;;6.19;75.29
49835;BME280;35729;52.090;13.162;2023-02-18T06:30:23;101104.59;;;6.21;73.29
49835;BME280;35729;52.090;13.162;2023-02-18T06:32:51;101108.06;;;6.23;75.73
49835;BME280;35729;52.090;13.162;2023-02-18T06:35:20;101095.03;;;6.21;74.35
49835;BME280;35729;52.090;13.162;2023-02-18T06:37:48;101101.13;;;6.23;75.43
49835;BME280;35729;52.090;13.162;2023-02-18T06:40:17;101101.97;;;6.24;74.81
49835;BME280;35729;52.090;13.162;2023-02-18T06:42:45;101097.63;;;6.24;74.38
49835;BME280;35729;52.090;13.162;2023-02-18T06:45:14;101088.94;;;6.25;74.67
49835;BME280;35729;52.090;13.162;2023-02-18T06:47:45;101088.94;;;6.27;72.44
49835;BME280;35729;52.090;13.162;2023-02-18T06:50:14;101085.50;;;6.29;74.57
49835;BME280;35729;52.090;13.162;2023-02-18T06:52:44;101077.69;;;6.31;75.28
49835;BME280;35729;52.090;13.162;2023-02-18T06:55:12;101078.53;;;6.33;75.27
49835;BME280;35729;52.090;13.162;2023-02-18T06:57:41;101074.19;;;6.30;74.48
49835;BME280;35729;52.090;13.162;2023-02-18T07:00:10;101080.28;;;6.34;74.35
49835;BME280;35729;52.090;13.162;2023-02-18T07:02:38;101068.13;;;6.38;75.20
49835;BME280;35729;52.090;13.162;2023-02-18T07:05:09;101070.72;;;6.41;74.80
49835;BME280;35729;52.090;13.162;2023-02-18T07:07:38;101061.19;;;6.41;75.05
49835;BME280;35729;52.090;13.162;2023-02-18T07:10:07;101072.50;;;6.43;73.43
49835;BME280;35729;52.090;13.162;2023-02-18T07:12:36;101054.22;;;6.45;75.26
49835;BME280;35729;52.090;13.162;2023-02-18T07:15:05;101062.03;;;6.46;74.48
49835;BME280;35729;52.090;13.162;2023-02-18T07:17:33;101051.63;;;6.46;74.51
49835;BME280;35729;52.090;13.162;2023-02-18T07:20:02;101038.59;;;6.48;74.76
49835;BME280;35729;52.090;13.162;2023-02-18T07:22:33;101039.47;;;6.48;74.85
49835;BME280;35729;52.090;13.162;2023-02-18T07:25:08;101029.91;;;6.49;72.12
49835;BME280;35729;52.090;13.162;2023-02-18T07:27:37;101024.69;;;6.50;75.16
49835;BME280;35729;52.090;13.162;2023-02-18T07:30:06;101021.22;;;6.51;74.97
49835;BME280;35729;52.090;13.162;2023-02-18T07:32:35;101022.97;;;6.51;74.47
49835;BME280;35729;52.090;13.162;2023-02-18T07:35:04;101017.75;;;6.51;75.37
49835;BME280;35729;52.090;13.162;2023-02-18T07:37:35;101027.28;;;6.52;76.39
49835;BME280;35729;52.090;13.162;2023-02-18T07:40:05;101022.09;;;6.54;75.96
49835;BME280;35729;52.090;13.162;2023-02-18T07:42:34;101020.34;;;6.54;76.36
49835;BME280;35729;52.090;13.162;2023-02-18T07:45:02;101020.34;;;6.54;76.77
49835;BME280;35729;52.090;13.162;2023-02-18T07:47:31;101017.72;;;6.54;76.90
49835;BME280;35729;52.090;13.162;2023-02-18T07:50:08;101014.25;;;6.54;76.93
49835;BME280;35729;52.090;13.162;2023-02-18T07:52:39;101012.50;;;6.49;74.79
49835;BME280;35729;52.090;13.162;2023-02-18T07:55:08;101010.78;;;6.50;76.78
49835;BME280;35729;52.090;13.162;2023-02-18T07:57:36;101011.66;;;6.50;77.70
49835;BME280;35729;52.090;13.162;2023-02-18T08:00:22;101006.44;;;6.50;78.42
49835;BME280;35729;52.090;13.162;2023-02-18T08:02:50;101009.03;;;6.49;79.26
49835;BME280;35729;52.090;13.162;2023-02-18T08:05:19;101002.09;;;6.48;80.17
49835;BME280;35729;52.090;13.162;2023-02-18T08:07:50;100998.63;;;6.43;80.87
49835;BME280;35729;52.090;13.162;2023-02-18T08:10:19;100987.34;;;6.36;81.79
49835;BME280;35729;52.090;13.162;2023-02-18T08:12:47;100989.06;;;6.28;83.52
49835;BME280;35729;52.090;13.162;2023-02-18T08:15:16;100993.41;;;6.19;84.53
49835;BME280;35729;52.090;13.162;2023-02-18T08:17:44;100989.06;;;6.11;86.62
49835;BME280;35729;52.090;13.162;2023-02-18T08:20:13;100986.47;;;6.05;86.43
49835;BME280;35729;52.090;13.162;2023-02-18T08:22:41;100970.81;;;5.98;87.11
49835;BME280;35729;52.090;13.162;2023-02-18T08:25:12;100960.38;;;5.92;88.97
49835;BME280;35729;52.090;13.162;2023-02-18T08:27:41;100962.09;;;5.88;89.06
49835;BME280;35729;52.090;13.162;2023-02-18T08:30:10;100964.72;;;5.84;89.93
49835;BME280;35729;52.090;13.162;2023-02-18T08:32:39;100950.81;;;5.80;91.94
49835;BME280;35729;52.090;13.162;2023-02-18T08:35:09;100956.88;;;5.75;93.06
49835;BME280;35729;52.090;13.162;2023-02-18T08:37:38;100954.28;;;5.70;93.98
49835;BME280;35729;52.090;13.162;2023-02-18T08:40:08;100943.00;;;5.66;94.46
49835;BME280;35729;52.090;13.162;2023-02-18T08:42:39;100936.00;;;5.62;94.31
49835;BME280;35729;52.090;13.162;2023-02-18T08:45:08;100934.28;;;5.60;95.21
49835;BME280;35729;52.090;13.162;2023-02-18T08:47:36;100923.03;;;5.56;97.08
49835;BME280;35729;52.090;13.162;2023-02-18T08:50:05;100929.09;;;5.55;96.36
49835;BME280;35729;52.090;13.162;2023-02-18T08:52:34;100924.75;;;5.52;97.56
49835;BME280;35729;52.090;13.162;2023-02-18T08:55:03;100922.13;;;5.51;97.99
49835;BME280;35729;52.090;13.162;2023-02-18T08:57:31;100918.66;;;5.50;99.15
49835;BME280;35729;52.090;13.162;2023-02-18T09:00:03;100919.50;;;5.51;100.00
49835;BME280;35729;52.090;13.162;2023-02-18T09:02:32;100918.66;;;5.49;99.43
49835;BME280;35729;52.090;13.162;2023-02-18T09:05:01;100907.38;;;5.47;100.00
49835;BME280;35729;52.090;13.162;2023-02-18T09:07:29;100908.25;;;5.49;100.00
49835;BME280;35729;52.090;13.162;2023-02-18T09:09:57;100904.78;;;5.50;99.57
49835;BME280;35729;52.090;13.162;2023-02-18T09:12:27;100892.63;;;5.52;100.00
49835;BME280;35729;52.090;13.162;2023-02-18T09:14:55;100888.31;;;5.52;100.00
49835;BME280;35729;52.090;13.162;2023-02-18T09:17:27;100882.22;;;5.52;100.00
49835;BME280;35729;52.090;13.162;2023-02-18T09:19:56;100870.94;;;5.53;100.00
49835;BME280;35729;52.090;13.162;2023-02-18T09:22:24;100870.94;;;5.53;100.00
49835;BME280;35729;52.090;13.162;2023-02-18T09:24:53;100877.88;;;5.54;100.00
49835;BME280;35729;52.090;13.162;2023-02-18T09:27:21;100869.22;;;5.55;100.00
49835;BME280;35729;52.090;13.162;2023-02-18T09:29:50;100858.78;;;5.58;100.00
49835;BME280;35729;52.090;13.162;2023-02-18T09:32:18;100857.06;;;5.60;100.00
49835;BME280;35729;52.090;13.162;2023-02-18T09:34:49;100844.06;;;5.63;100.00
49835;BME280;35729;52.090;13.162;2023-02-18T09:37:18;100845.78;;;5.64;100.00
49835;BME280;35729;52.090;13.162;2023-02-18T09:39:46;100839.72;;;5.65;100.00
49835;BME280;35729;52.090;13.162;2023-02-18T09:42:17;100821.50;;;5.65;100.00
49835;BME280;35729;52.090;13.162;2023-02-18T09:44:50;100812.84;;;5.66;100.00
49835;BME280;35729;52.090;13.162;2023-02-18T09:47:24;100810.19;;;5.71;100.00
49835;BME280;35729;52.090;13.162;2023-02-18T09:50:05;100797.22;;;5.73;100.00
49835;BME280;35729;52.090;13.162;2023-02-18T09:52:37;100800.66;;;5.76;100.00
49835;BME280;35729;52.090;13.162;2023-02-18T09:55:16;100790.25;;;5.78;100.00
49835;BME280;35729;52.090;13.162;2023-02-18T09:57:53;100791.97;;;5.82;100.00
49835;BME280;35729;52.090;13.162;2023-02-18T10:00:32;100786.75;;;5.83;100.00
49835;BME280;35729;52.090;13.162;2023-02-18T10:03:04;100763.34;;;5.82;100.00
49835;BME280;35729;52.090;13.162;2023-02-18T10:05:36;100764.22;;;5.85;100.00
49835;BME280;35729;52.090;13.162;2023-02-18T10:08:13;100749.44;;;5.89;100.00
49835;BME280;35729;52.090;13.162;2023-02-18T10:10:47;100736.44;;;5.89;100.00
49835;BME280;35729;52.090;13.162;2023-02-18T10:13:17;100739.91;;;5.93;100.00
49835;BME280;35729;52.090;13.162;2023-02-18T10:15:47;100743.34;;;5.95;100.00
49835;BME280;35729;52.090;13.162;2023-02-18T10:18:27;100738.13;;;5.96;100.00
49835;BME280;35729;52.090;13.162;2023-02-18T10:21:05;100728.59;;;5.97;100.00
49835;BME280;35729;52.090;13.162;2023-02-18T10:23:36;100727.75;;;5.99;100.00
49835;BME280;35729;52.090;13.162;2023-02-18T10:26:10;100721.66;;;6.02;100.00
49835;BME280;35729;52.090;13.162;2023-02-18T10:28:40;100713.81;;;6.05;100.00
49835;BME280;35729;52.090;13.162;2023-02-18T10:31:13;100706.88;;;6.07;100.00
49835;BME280;35729;52.090;13.162;2023-02-18T10:33:46;100686.03;;;6.09;100.00
49835;BME280;35729;52.090;13.162;2023-02-18T10:36:32;100673.88;;;6.09;100.00
49835;BME280;35729;52.090;13.162;2023-02-18T10:39:17;100673.00;;;6.12;100.00
49835;BME280;35729;52.090;13.162;2023-02-18T10:41:54;100656.50;;;6.11;100.00
49835;BME280;35729;52.090;13.162;2023-02-18T10:44:34;100651.25;;;6.17;100.00
49835;BME280;35729;52.090;13.162;2023-02-18T10:47:13;100648.66;;;6.21;100.00
49835;BME280;35729;52.090;13.162;2023-02-18T10:49:59;100637.34;;;6.25;100.00
49835;BME280;35729;52.090;13.162;2023-02-18T10:52:36;100629.50;;;6.28;100.00
49835;BME280;35729;52.090;13.162;2023-02-18T10:55:09;100630.34;;;6.31;100.00
49835;BME280;35729;52.090;13.162;2023-02-18T10:57:45;100626.00;;;6.33;100.00
49835;BME280;35729;52.090;13.162;2023-02-18T11:00:17;100616.41;;;6.35;100.00
49835;BME280;35729;52.090;13.162;2023-02-18T11:03:02;100604.25;;;6.36;100.00
49835;BME280;35729;52.090;13.162;2023-02-18T11:05:34;100593.81;;;6.38;100.00
49835;BME280;35729;52.090;13.162;2023-02-18T11:08:07;100589.47;;;6.40;100.00
49835;BME280;35729;52.090;13.162;2023-02-18T11:10:39;100586.84;;;6.41;100.00
49835;BME280;35729;52.090;13.162;2023-02-18T11:13:11;100572.06;;;6.45;100.00
49835;BME280;35729;52.090;13.162;2023-02-18T11:15:54;100577.25;;;6.48;100.00
49835;BME280;35729;52.090;13.162;2023-02-18T11:18:41;100569.41;;;6.51;100.00
49835;BME280;35729;52.090;13.162;2023-02-18T11:21:23;100558.09;;;6.52;100.00
49835;BME280;35729;52.090;13.162;2023-02-18T11:23:56;100547.66;;;6.55;100.00
49835;BME280;35729;52.090;13.162;2023-02-18T11:26:28;100544.97;;;6.63;100.00
49835;BME280;35729;52.090;13.162;2023-02-18T11:28:59;100533.63;;;6.70;100.00
49835;BME280;35729;52.090;13.162;2023-02-18T11:31:37;100520.53;;;6.75;100.00
49835;BME280;35729;52.090;13.162;2023-02-18T11:34:14;100520.47;;;6.84;100.00
49835;BME280;35729;52.090;13.162;2023-02-18T11:36:44;100517.78;;;6.90;100.00
49835;BME280;35729;52.090;13.162;2023-02-18T11:39:20;100502.91;;;6.98;100.00
49835;BME280;35729;52.090;13.162;2023-02-18T11:41:53;100495.00;;;7.06;100.00
49835;BME280;35729;52.090;13.162;2023-02-18T11:44:26;100491.41;;;7.15;100.00
49835;BME280;35729;52.090;13.162;2023-02-18T11:47:00;100489.63;;;7.22;100.00
49835;BME280;35729;52.090;13.162;2023-02-18T11:49:30;100476.50;;;7.26;100.00
49835;BME280;35729;52.090;13.162;2023-02-18T11:52:15;100472.97;;;7.32;100.00
49835;BME280;35729;52.090;13.162;2023-02-18T11:55:00;100474.63;;;7.38;100.00
49835;BME280;35729;52.090;13.162;2023-02-18T11:57:29;100464.97;;;7.43;100.00
49835;BME280;35729;52.090;13.162;2023-02-18T11:59:58;100458.81;;;7.50;100.00
49835;BME280;35729;52.090;13.162;2023-02-18T12:02:32;100456.06;;;7.59;100.00
49835;BME280;35729;52.090;13.162;2023-02-18T12:05:02;100456.78;;;7.69;100.00
49835;BME280;35729;52.090;13.162;2023-02-18T12:07:40;100440.97;;;7.78;100.00
49835;BME280;35729;52.090;13.162;2023-02-18T12:10:14;100446.06;;;7.88;100.00
49835;BME280;35729;52.090;13.162;2023-02-18T12:12:49;100436.31;;;7.99;100.00
49835;BME280;35729;52.090;13.162;2023-02-18T12:15:27;100437.97;;;8.06;100.00
49835;BME280;35729;52.090;13.162;2023-02-18T12:18:08;100443.00;;;8.17;100.00
49835;BME280;35729;52.090;13.162;2023-02-18T12:20:52;100434.97;;;8.28;100.00
49835;BME280;35729;52.090;13.162;2023-02-18T12:23:27;100427.00;;;8.36;100.00
49835;BME280;35729;52.090;13.162;2023-02-18T12:26:07;100418.97;;;8.45;100.00
49835;BME280;35729;52.090;13.162;2023-02-18T12:28:51;100422.38;;;8.52;100.00
49835;BME280;35729;52.090;13.162;2023-02-18T12:34:38;100402.94;;;8.67;100.00
49835;BME280;35729;52.090;13.162;2023-02-18T12:40:23;100428.00;;;8.77;100.00
49835;BME280;35729;52.090;13.162;2023-02-18T12:43:05;100420.06;;;8.82;100.00
49835;BME280;35729;52.090;13.162;2023-02-18T12:46:04;100413.88;;;8.86;100.00
49835;BME280;35729;52.090;13.162;2023-02-18T12:49:03;100419.03;;;8.90;100.00
49835;BME280;35729;52.090;13.162;2023-02-18T12:51:45;100414.66;;;8.92;100.00
49835;BME280;35729;52.090;13.162;2023-02-18T12:54:33;100418.94;;;8.95;100.00
49835;BME280;35729;52.090;13.162;2023-02-18T12:57:29;100418.03;;;8.98;100.00
49835;BME280;35729;52.090;13.162;2023-02-18T13:00:30;100385.69;;;9.00;100.00
49835;BME280;35729;52.090;13.162;2023-02-18T13:03:26;100384.81;;;9.01;100.00
49835;BME280;35729;52.090;13.162;2023-02-18T13:06:05;100404.03;;;9.00;100.00
49835;BME280;35729;52.090;13.162;2023-02-18T13:08:46;100381.28;;;9.04;100.00
49835;BME280;35729;52.090;13.162;2023-02-18T13:11:25;100400.41;;;9.06;100.00
49835;BME280;35729;52.090;13.162;2023-02-18T13:13:59;100416.09;;;9.06;100.00
49835;BME280;35729;52.090;13.162;2023-02-18T13:16:34;100405.63;;;9.07;100.00
49835;BME280;35729;52.090;13.162;2023-02-18T13:19:17;100394.28;;;9.07;100.00
49835;BME280;35729;52.090;13.162;2023-02-18T13:21:47;100402.84;;;9.13;100.00
49835;BME280;35729;52.090;13.162;2023-02-18T13:24:21;100395.00;;;9.13;100.00
49835;BME280;35729;52.090;13.162;2023-02-18T13:26:55;100428.09;;;9.16;100.00
49835;BME280;35729;52.090;13.162;2023-02-18T13:29:31;100405.38;;;9.18;100.00
49835;BME280;35729;52.090;13.162;2023-02-18T13:32:11;100434.97;;;9.22;100.00
49835;BME280;35729;52.090;13.162;2023-02-18T13:34:48;100424.41;;;9.26;100.00